Time;durP1;ratioP1;P1;durP2;ratioP2;P2;SDS_P1;SDS_P2;PMS_P1;PMS_P2;Temp;Humidity;BMP_temperature;BMP_pressure;BME280_temperature;BME280_humidity;BME280_pressure;Samples;Min_cycle;Max_cycle;Signal;HPM_P1;HPM_P2
2021/10/12 00:01:33;;;;;;;7.68;2.92;;;11.30;97.60;;;;;;4935871;29;20024;-72
2021/10/12 00:03:59;;;;;;;7.40;2.20;;;11.30;97.60;;;;;;4917893;29;20036;-72
2021/10/12 00:06:24;;;;;;;7.22;1.95;;;11.30;97.70;;;;;;4916721;29;20062;-71
2021/10/12 00:08:50;;;;;;;9.30;2.10;;;11.30;97.70;;;;;;4923539;29;20032;-71
2021/10/12 00:11:15;;;;;;;5.63;2.45;;;11.30;97.70;;;;;;4916543;29;20028;-71
2021/10/12 00:13:41;;;;;;;7.35;2.20;;;11.30;97.70;;;;;;4924215;29;20141;-72
2021/10/12 00:16:06;;;;;;;8.48;2.58;;;11.30;97.80;;;;;;4925803;29;20087;-71
2021/10/12 00:18:32;;;;;;;9.23;2.30;;;11.20;97.80;;;;;;4929598;29;20488;-72
2021/10/12 00:20:57;;;;;;;6.47;2.85;;;11.20;97.80;;;;;;4922442;29;20392;-70
2021/10/12 00:23:23;;;;;;;7.70;2.22;;;11.20;97.90;;;;;;4927312;29;20508;-72
2021/10/12 00:25:49;;;;;;;7.95;2.20;;;11.20;97.90;;;;;;4916405;29;20028;-69
2021/10/12 00:28:14;;;;;;;8.77;2.38;;;11.20;97.90;;;;;;4916160;29;20079;-69
2021/10/12 00:30:40;;;;;;;11.10;3.88;;;11.20;98.00;;;;;;4916218;29;20024;-69
2021/10/12 00:33:06;;;;;;;6.20;2.25;;;11.20;98.00;;;;;;4925254;29;20042;-69
2021/10/12 00:35:31;;;;;;;8.07;2.35;;;11.10;98.00;;;;;;4934003;29;20031;-69
2021/10/12 00:37:57;;;;;;;7.30;2.03;;;11.20;98.10;;;;;;4933214;29;20032;-70
2021/10/12 00:40:23;;;;;;;6.07;2.42;;;11.10;98.00;;;;;;4918657;29;20028;-70
2021/10/12 00:42:49;;;;;;;6.47;2.38;;;11.10;98.10;;;;;;4916194;29;20039;-70
2021/10/12 00:45:15;;;;;;;8.55;2.00;;;11.10;98.20;;;;;;4929213;29;20038;-70
2021/10/12 00:47:58;;;;;;;7.95;2.15;;;11.10;98.20;;;;;;4912485;29;20069;-70
2021/10/12 00:50:25;;;;;;;7.28;2.08;;;11.10;98.20;;;;;;4900739;29;20478;-70
2021/10/12 00:52:50;;;;;;;8.43;2.67;;;11.00;98.20;;;;;;4932109;29;20412;-69
2021/10/12 00:55:16;;;;;;;6.90;1.98;;;11.10;98.20;;;;;;4926929;29;20024;-70
2021/10/12 00:57:41;;;;;;;4.22;1.88;;;11.00;98.20;;;;;;4927943;29;20111;-70
2021/10/12 01:00:10;;;;;;;9.68;2.65;;;11.00;98.50;;;;;;4915804;29;20449;-70
2021/10/12 01:02:36;;;;;;;10.45;2.30;;;11.00;98.20;;;;;;4916235;29;20040;-70
2021/10/12 01:05:02;;;;;;;10.75;2.40;;;11.00;98.30;;;;;;4915972;29;20075;-70
2021/10/12 01:07:28;;;;;;;10.73;2.15;;;11.00;98.40;;;;;;4920197;29;20535;-70
2021/10/12 01:09:53;;;;;;;7.28;2.35;;;11.00;98.40;;;;;;4925341;29;20036;-69
2021/10/12 01:12:19;;;;;;;7.43;2.22;;;11.00;98.40;;;;;;4915284;29;20404;-70
2021/10/12 01:14:45;;;;;;;5.72;1.80;;;11.00;98.40;;;;;;4921980;29;20028;-69
2021/10/12 01:17:11;;;;;;;3.08;1.95;;;11.00;98.40;;;;;;4930896;29;20036;-69
2021/10/12 01:19:36;;;;;;;7.05;2.15;;;11.00;98.40;;;;;;4916528;29;20468;-70
2021/10/12 01:22:02;;;;;;;11.75;1.88;;;10.90;98.40;;;;;;4930464;29;20036;-70
2021/10/12 01:24:27;;;;;;;8.52;2.10;;;10.90;98.40;;;;;;4930530;29;20063;-70
2021/10/12 01:26:54;;;;;;;9.80;1.98;;;11.00;98.50;;;;;;4915682;29;20095;-70
2021/10/12 01:29:20;;;;;;;7.13;2.25;;;10.90;98.50;;;;;;4932502;29;20111;-70
2021/10/12 01:31:45;;;;;;;10.60;2.53;;;10.90;98.50;;;;;;4885162;29;20139;-70
2021/10/12 01:34:18;;;;;;;5.53;1.90;;;10.90;98.50;;;;;;4924094;29;20431;-71
2021/10/12 01:36:44;;;;;;;7.20;2.08;;;10.90;98.50;;;;;;4915111;29;20119;-71
2021/10/12 01:39:10;;;;;;;10.00;2.30;;;10.90;98.50;;;;;;4915469;29;20115;-71
2021/10/12 01:41:36;;;;;;;5.32;1.88;;;10.90;98.50;;;;;;4915551;29;20031;-71
2021/10/12 01:44:02;;;;;;;8.13;1.90;;;10.90;98.60;;;;;;4915087;29;20051;-71
2021/10/12 01:46:28;;;;;;;12.25;2.42;;;10.90;98.60;;;;;;4915175;29;20032;-72
2021/10/12 01:48:53;;;;;;;6.13;2.00;;;11.00;98.60;;;;;;4926238;29;20031;-71
2021/10/12 01:51:19;;;;;;;8.32;2.05;;;11.00;98.60;;;;;;4903681;29;20515;-71
2021/10/12 01:53:45;;;;;;;6.43;2.33;;;10.90;98.50;;;;;;4917298;29;20044;-72
2021/10/12 01:56:10;;;;;;;3.83;1.85;;;11.00;98.50;;;;;;4915141;29;20389;-71
2021/10/12 01:58:36;;;;;;;6.78;1.92;;;11.00;98.50;;;;;;4899580;29;20036;-70
2021/10/12 02:01:02;;;;;;;4.32;1.70;;;10.90;98.50;;;;;;4918933;29;20465;-70
2021/10/12 02:03:27;;;;;;;8.05;2.25;;;11.00;98.50;;;;;;4919757;29;20040;-71
2021/10/12 02:05:53;;;;;;;5.68;1.90;;;11.00;98.50;;;;;;4918992;29;20047;-71
2021/10/12 02:08:18;;;;;;;9.13;2.90;;;10.90;98.50;;;;;;4923281;29;20119;-70
2021/10/12 02:10:44;;;;;;;7.57;2.00;;;10.90;98.40;;;;;;4923025;29;20027;-70
2021/10/12 02:13:09;;;;;;;7.03;1.90;;;10.90;98.40;;;;;;4932274;29;20042;-70
2021/10/12 02:15:35;;;;;;;7.68;2.08;;;10.90;98.50;;;;;;4922836;29;20020;-70
2021/10/12 02:18:00;;;;;;;9.05;2.08;;;10.90;98.70;;;;;;4923728;29;20032;-70
2021/10/12 02:20:26;;;;;;;6.65;2.30;;;10.80;98.50;;;;;;4930009;29;20024;-70
2021/10/12 02:22:51;;;;;;;8.07;2.08;;;10.80;98.50;;;;;;4921826;29;20472;-70
2021/10/12 02:25:17;;;;;;;6.57;2.20;;;10.80;98.50;;;;;;4919237;29;20028;-69
2021/10/12 02:27:42;;;;;;;6.43;2.53;;;10.80;98.50;;;;;;4932225;29;20028;-69
2021/10/12 02:30:09;;;;;;;9.23;2.92;;;10.80;98.50;;;;;;4918316;29;20032;-69
2021/10/12 02:32:34;;;;;;;7.32;2.28;;;10.70;98.60;;;;;;4917870;29;20055;-71
2021/10/12 02:35:00;;;;;;;5.82;1.80;;;10.80;98.70;;;;;;4917944;29;20020;-71
2021/10/12 02:37:25;;;;;;;6.22;2.38;;;10.70;98.60;;;;;;4918032;29;20036;-71
2021/10/12 02:39:51;;;;;;;7.63;2.72;;;10.70;98.70;;;;;;4918055;29;20024;-71
2021/10/12 02:42:16;;;;;;;8.18;2.47;;;10.70;98.70;;;;;;4916983;29;20047;-71
2021/10/12 02:44:42;;;;;;;5.85;2.33;;;10.70;98.70;;;;;;4936734;29;20082;-69
2021/10/12 02:47:07;;;;;;;5.25;2.10;;;10.70;98.70;;;;;;4937504;29;20384;-70
2021/10/12 02:49:33;;;;;;;8.13;2.35;;;10.70;98.70;;;;;;4928896;29;20039;-69
2021/10/12 02:51:58;;;;;;;7.05;2.35;;;10.70;98.70;;;;;;4918302;29;20631;-70
2021/10/12 02:54:24;;;;;;;5.75;2.33;;;10.70;98.80;;;;;;4921505;29;20032;-71
2021/10/12 02:56:49;;;;;;;7.45;2.47;;;10.60;98.80;;;;;;4926343;29;20038;-71
2021/10/12 02:59:16;;;;;;;6.15;2.40;;;10.60;98.70;;;;;;4926221;29;20039;-71
2021/10/12 03:01:41;;;;;;;6.72;2.30;;;10.60;98.80;;;;;;4940081;29;20094;-71
2021/10/12 03:04:07;;;;;;;8.23;2.30;;;10.60;98.80;;;;;;4928411;29;20028;-71
2021/10/12 03:06:32;;;;;;;9.88;2.00;;;10.60;98.80;;;;;;4935990;29;20539;-70
2021/10/12 03:08:58;;;;;;;5.22;2.28;;;10.60;98.80;;;;;;4925713;29;20036;-70
2021/10/12 03:11:23;;;;;;;6.95;2.42;;;10.60;98.90;;;;;;4932061;29;20032;-71
2021/10/12 03:13:48;;;;;;;5.45;2.50;;;10.60;98.90;;;;;;4924167;29;20048;-71
2021/10/12 03:16:14;;;;;;;6.93;2.33;;;10.70;98.90;;;;;;4927313;29;20031;-71
2021/10/12 03:18:40;;;;;;;6.72;2.42;;;10.60;98.90;;;;;;4918437;29;20118;-70
2021/10/12 03:21:06;;;;;;;10.10;2.25;;;10.60;98.90;;;;;;4935831;29;20063;-71
2021/10/12 03:23:32;;;;;;;10.80;2.58;;;10.60;98.90;;;;;;4935294;29;20110;-71
2021/10/12 03:25:57;;;;;;;6.47;2.17;;;10.50;98.90;;;;;;4929101;29;20473;-71
2021/10/12 03:28:23;;;;;;;8.63;2.35;;;10.60;99.00;;;;;;4918270;29;20024;-71
2021/10/12 03:30:48;;;;;;;6.05;2.30;;;10.60;99.00;;;;;;4930526;29;20110;-71
2021/10/12 03:33:14;;;;;;;6.60;2.38;;;10.60;99.00;;;;;;4924150;29;20043;-71
2021/10/12 03:35:46;;;;;;;8.60;2.10;;;10.60;99.00;;;;;;4931056;29;20068;-71
2021/10/12 03:38:12;;;;;;;5.65;2.15;;;10.60;99.00;;;;;;4903520;29;20028;-70
2021/10/12 03:40:37;;;;;;;10.70;2.47;;;10.60;99.00;;;;;;4921500;29;20388;-71
2021/10/12 03:43:03;;;;;;;7.88;2.63;;;10.60;99.00;;;;;;4934184;29;20042;-70
2021/10/12 03:45:28;;;;;;;7.32;2.50;;;10.60;99.00;;;;;;4933779;29;20035;-69
2021/10/12 03:47:54;;;;;;;5.60;2.30;;;10.60;99.00;;;;;;4921200;29;20583;-70
2021/10/12 03:50:19;;;;;;;6.65;2.10;;;10.60;99.00;;;;;;4935081;29;20035;-70
2021/10/12 03:52:45;;;;;;;7.38;2.50;;;10.60;99.00;;;;;;4902412;29;20036;-70
2021/10/12 03:55:10;;;;;;;7.40;2.88;;;10.60;99.00;;;;;;4916140;29;20107;-70
2021/10/12 03:57:36;;;;;;;6.72;2.53;;;10.60;99.00;;;;;;4930706;29;20031;-70
2021/10/12 04:00:03;;;;;;;6.90;2.20;;;10.60;99.00;;;;;;4935517;29;20047;-70
2021/10/12 04:02:28;;;;;;;6.72;2.00;;;10.60;99.00;;;;;;4932307;29;20059;-70
2021/10/12 04:04:54;;;;;;;9.05;2.42;;;10.60;99.00;;;;;;4916322;29;20120;-70
2021/10/12 04:07:19;;;;;;;5.78;2.40;;;10.60;99.00;;;;;;4916433;29;20496;-70
2021/10/12 04:09:45;;;;;;;10.82;2.28;;;10.60;99.00;;;;;;4935566;29;20028;-70
2021/10/12 04:12:10;;;;;;;6.28;2.45;;;10.60;99.00;;;;;;4914647;29;20043;-71
2021/10/12 04:14:36;;;;;;;7.25;2.42;;;10.70;99.20;;;;;;4934295;29;20028;-70
2021/10/12 04:17:01;;;;;;;9.40;2.53;;;10.60;99.00;;;;;;4918777;29;20039;-70
2021/10/12 04:19:27;;;;;;;5.43;2.40;;;10.70;99.00;;;;;;4916268;29;20021;-70
2021/10/12 04:21:52;;;;;;;6.32;2.22;;;10.70;99.10;;;;;;4916179;29;20040;-70
2021/10/12 04:24:18;;;;;;;6.55;2.15;;;10.70;99.10;;;;;;4931356;29;20020;-70
2021/10/12 04:26:43;;;;;;;8.88;2.30;;;10.70;99.10;;;;;;4904430;29;20032;-70
2021/10/12 04:29:08;;;;;;;8.02;2.75;;;10.70;99.10;;;;;;4915756;29;20039;-71
2021/10/12 04:31:35;;;;;;;6.78;2.78;;;10.70;99.10;;;;;;4916084;29;20044;-71
2021/10/12 04:34:01;;;;;;;13.32;3.35;;;10.80;99.10;;;;;;4927141;29;20051;-71
2021/10/12 04:36:26;;;;;;;10.48;3.17;;;10.70;99.10;;;;;;4935146;29;20122;-71
2021/10/12 04:38:52;;;;;;;5.43;2.97;;;10.80;99.20;;;;;;4921954;29;20020;-70
2021/10/12 04:41:17;;;;;;;8.43;3.65;;;10.80;99.10;;;;;;4918285;29;20039;-70
2021/10/12 04:43:43;;;;;;;9.32;3.13;;;10.90;99.10;;;;;;4923891;29;20031;-70
2021/10/12 04:46:09;;;;;;;9.98;3.63;;;10.90;99.20;;;;;;4916109;29;20136;-70
2021/10/12 04:48:35;;;;;;;6.97;2.92;;;10.90;99.20;;;;;;4916653;29;20385;-71
2021/10/12 04:51:00;;;;;;;7.93;3.20;;;10.90;99.20;;;;;;4934612;29;20023;-71
2021/10/12 04:53:26;;;;;;;8.18;3.22;;;11.00;99.30;;;;;;4933112;29;20131;-69
2021/10/12 04:55:51;;;;;;;6.85;3.15;;;11.00;99.30;;;;;;4908837;29;20036;-70
2021/10/12 04:58:17;;;;;;;7.25;3.33;;;11.00;99.30;;;;;;4922017;29;20028;-69
2021/10/12 05:00:42;;;;;;;6.18;3.00;;;11.00;99.30;;;;;;4923973;29;20064;-69
2021/10/12 05:03:08;;;;;;;10.60;3.80;;;11.00;99.30;;;;;;4905073;29;20110;-70
2021/10/12 05:05:33;;;;;;;5.68;2.50;;;11.00;99.30;;;;;;4921757;29;20127;-69
2021/10/12 05:07:59;;;;;;;5.65;2.80;;;11.10;99.30;;;;;;4915772;29;20119;-70
2021/10/12 05:10:25;;;;;;;5.40;2.55;;;11.10;99.30;;;;;;4920283;29;20467;-70
2021/10/12 05:12:51;;;;;;;7.78;2.60;;;11.10;99.30;;;;;;4929082;29;20040;-69
2021/10/12 05:15:23;;;;;;;5.35;2.33;;;11.10;99.40;;;;;;4933785;29;20034;-70
2021/10/12 05:17:49;;;;;;;5.63;2.70;;;11.00;99.30;;;;;;4932739;29;20036;-70
2021/10/12 05:20:15;;;;;;;5.68;2.80;;;11.10;99.40;;;;;;4925570;29;20036;-70
2021/10/12 05:22:41;;;;;;;6.00;2.47;;;11.10;99.40;;;;;;4915836;29;20039;-70
2021/10/12 05:25:06;;;;;;;6.85;2.55;;;11.10;99.40;;;;;;4898317;29;20025;-70
2021/10/12 05:27:33;;;;;;;4.85;2.25;;;11.10;99.40;;;;;;4915533;29;20542;-70
2021/10/12 05:29:58;;;;;;;4.72;2.38;;;11.10;99.40;;;;;;4919512;29;20071;-70
2021/10/12 05:32:24;;;;;;;4.70;2.47;;;11.10;99.30;;;;;;4917874;29;20130;-69
2021/10/12 05:34:50;;;;;;;8.02;3.20;;;11.00;99.30;;;;;;4918478;29;20411;-69
2021/10/12 05:37:16;;;;;;;6.80;2.50;;;11.10;99.30;;;;;;4901973;29;20481;-70
2021/10/12 05:39:41;;;;;;;5.78;2.17;;;11.10;99.30;;;;;;4930293;29;20039;-70
2021/10/12 05:42:07;;;;;;;4.65;2.15;;;11.00;99.20;;;;;;4938325;29;20519;-70
2021/10/12 05:44:33;;;;;;;6.60;2.20;;;11.00;99.20;;;;;;4927184;29;20038;-70
2021/10/12 05:46:58;;;;;;;5.72;2.53;;;11.00;99.20;;;;;;4938094;29;20389;-70
2021/10/12 05:49:24;;;;;;;5.20;2.33;;;11.00;99.20;;;;;;4935651;29;20031;-70
2021/10/12 05:51:49;;;;;;;5.63;2.00;;;11.00;99.20;;;;;;4938183;29;20098;-70
2021/10/12 05:54:19;;;;;;;5.25;2.20;;;11.00;99.20;;;;;;4921452;29;20025;-70
2021/10/12 05:56:56;;;;;;;5.97;2.00;;;11.00;99.20;;;;;;4918914;29;20430;-71
2021/10/12 05:59:21;;;;;;;5.40;2.00;;;11.00;99.30;;;;;;4933513;29;20539;-70
2021/10/12 06:01:47;;;;;;;3.92;1.85;;;11.00;99.30;;;;;;4922805;29;20060;-71
2021/10/12 06:04:12;;;;;;;9.18;2.38;;;11.10;99.30;;;;;;4933385;29;20024;-71
2021/10/12 06:06:38;;;;;;;5.13;2.38;;;11.10;99.40;;;;;;4937408;29;20028;-71
2021/10/12 06:09:03;;;;;;;4.50;2.35;;;11.10;99.40;;;;;;4919734;29;20506;-70
2021/10/12 06:11:29;;;;;;;3.85;2.13;;;11.10;99.40;;;;;;4918927;29;20083;-69
2021/10/12 06:13:56;;;;;;;5.57;2.20;;;11.10;99.40;;;;;;4917658;29;20044;-69
2021/10/12 06:16:22;;;;;;;4.35;2.28;;;11.20;99.40;;;;;;4927772;29;20068;-69
2021/10/12 06:18:47;;;;;;;6.43;2.92;;;11.20;99.40;;;;;;4923742;29;20032;-70
2021/10/12 06:21:15;;;;;;;6.60;3.03;;;11.20;99.50;;;;;;4937113;29;20050;-68
2021/10/12 06:23:41;;;;;;;3.28;2.35;;;11.20;99.50;;;;;;4925546;29;20509;-68
2021/10/12 06:26:07;;;;;;;4.13;2.67;;;11.30;99.50;;;;;;4931642;29;20024;-68
2021/10/12 06:28:33;;;;;;;6.82;2.85;;;11.40;99.50;;;;;;4920914;29;20057;-68
2021/10/12 06:30:58;;;;;;;7.55;3.10;;;11.30;99.40;;;;;;4930480;29;20095;-68
2021/10/12 06:33:24;;;;;;;5.90;3.50;;;11.40;99.50;;;;;;4921922;29;20043;-68
2021/10/12 06:35:49;;;;;;;5.78;3.20;;;11.40;99.50;;;;;;4917535;29;20028;-68
2021/10/12 06:38:15;;;;;;;8.27;3.60;;;11.50;99.50;;;;;;4917979;29;20032;-68
2021/10/12 06:40:41;;;;;;;5.63;3.28;;;11.50;99.50;;;;;;4919995;29;20071;-68
2021/10/12 06:43:08;;;;;;;6.78;3.30;;;11.50;99.50;;;;;;4921696;29;20024;-68
2021/10/12 06:45:34;;;;;;;6.10;3.15;;;11.50;99.40;;;;;;4898687;29;20047;-68
2021/10/12 06:47:59;;;;;;;6.80;3.67;;;11.60;99.40;;;;;;4923052;29;20023;-68
2021/10/12 06:50:25;;;;;;;9.38;3.78;;;11.60;99.40;;;;;;4917192;29;20040;-68
2021/10/12 06:52:51;;;;;;;6.20;3.28;;;11.60;99.40;;;;;;4912138;29;20628;-68
2021/10/12 06:55:17;;;;;;;6.43;3.65;;;11.70;99.40;;;;;;4916782;29;20477;-68
2021/10/12 06:57:43;;;;;;;5.75;3.40;;;11.80;99.40;;;;;;4918117;29;20040;-68
2021/10/12 07:00:13;;;;;;;5.70;3.55;;;11.80;99.30;;;;;;4931792;29;20038;-67
2021/10/12 07:02:39;;;;;;;7.57;3.67;;;11.80;99.30;;;;;;4920308;29;20515;-68
2021/10/12 07:05:05;;;;;;;6.55;3.25;;;11.90;99.30;;;;;;4928071;29;20034;-67
2021/10/12 07:07:31;;;;;;;6.88;3.80;;;11.90;99.20;;;;;;4918228;29;20106;-67
2021/10/12 07:09:58;;;;;;;5.05;3.35;;;12.00;99.20;;;;;;4916746;29;20024;-67
2021/10/12 07:12:23;;;;;;;5.82;3.50;;;11.90;99.10;;;;;;4918928;29;20114;-67
2021/10/12 07:14:49;;;;;;;7.35;3.22;;;11.90;99.00;;;;;;4923058;29;20028;-66
2021/10/12 07:17:14;;;;;;;6.18;3.05;;;11.90;99.00;;;;;;4919225;29;20028;-67
2021/10/12 07:19:40;;;;;;;6.38;3.15;;;12.00;99.00;;;;;;4926831;29;20032;-67
2021/10/12 07:22:05;;;;;;;4.55;2.78;;;12.00;99.00;;;;;;4916837;29;20124;-68
2021/10/12 07:24:30;;;;;;;7.43;3.70;;;12.00;98.90;;;;;;4921967;29;20068;-67
2021/10/12 07:26:56;;;;;;;5.15;2.70;;;12.00;98.80;;;;;;4920527;29;20063;-67
2021/10/12 07:29:21;;;;;;;8.45;3.28;;;12.10;98.80;;;;;;4923155;29;20461;-67
2021/10/12 07:31:47;;;;;;;4.88;2.28;;;12.00;98.70;;;;;;4922853;29;20046;-67
2021/10/12 07:34:13;;;;;;;4.75;2.40;;;12.10;98.60;;;;;;4917375;29;20087;-67
2021/10/12 07:36:39;;;;;;;4.30;2.33;;;12.20;98.50;;;;;;4927112;29;20036;-67
2021/10/12 07:39:06;;;;;;;5.63;2.42;;;12.20;98.50;;;;;;4921185;29;20038;-68
2021/10/12 07:41:33;;;;;;;4.32;2.40;;;12.20;98.40;;;;;;4923432;29;20071;-67
2021/10/12 07:43:59;;;;;;;5.97;2.13;;;12.30;98.30;;;;;;4920446;29;20036;-66
2021/10/12 07:46:25;;;;;;;3.95;2.17;;;12.20;98.30;;;;;;4920248;29;20498;-66
2021/10/12 07:48:57;;;;;;;6.50;1.90;;;12.30;98.20;;;;;;4920168;29;20027;-66
2021/10/12 07:51:23;;;;;;;4.10;2.10;;;12.30;98.20;;;;;;4919292;29;20048;-67
2021/10/12 07:53:50;;;;;;;5.43;2.40;;;12.30;98.10;;;;;;4924060;29;20475;-66
2021/10/12 07:56:35;;;;;;;4.47;2.00;;;12.40;98.10;;;;;;4917594;29;20137;-66
2021/10/12 07:59:02;;;;;;;3.50;2.10;;;12.40;98.00;;;;;;4920331;29;20132;-66
2021/10/12 08:01:27;;;;;;;4.53;1.92;;;12.40;97.90;;;;;;4915385;29;20048;-66
2021/10/12 08:03:53;;;;;;;3.55;2.15;;;12.50;97.80;;;;;;4920099;29;20079;-66
2021/10/12 08:06:19;;;;;;;4.03;1.65;;;12.50;97.70;;;;;;4924754;29;20261;-66
2021/10/12 08:08:44;;;;;;;4.97;1.95;;;12.50;97.60;;;;;;4927237;29;20024;-66
2021/10/12 08:11:10;;;;;;;2.85;1.85;;;12.60;97.50;;;;;;4924506;29;20441;-66
2021/10/12 08:13:35;;;;;;;3.75;2.33;;;12.60;97.40;;;;;;4927464;29;20038;-65
2021/10/12 08:16:08;;;;;;;4.32;1.63;;;12.50;97.00;;;;;;4915280;29;20084;-65
2021/10/12 08:18:34;;;;;;;3.63;1.83;;;12.50;97.20;;;;;;4905994;29;20028;-66
2021/10/12 08:21:00;;;;;;;3.55;1.98;;;12.50;97.20;;;;;;4916107;29;20076;-66
2021/10/12 08:23:26;;;;;;;2.80;1.65;;;12.50;97.20;;;;;;4900351;29;20032;-66
2021/10/12 08:25:51;;;;;;;4.38;2.08;;;12.50;97.10;;;;;;4922693;29;20028;-66
2021/10/12 08:28:17;;;;;;;2.97;2.03;;;12.50;97.20;;;;;;4916886;29;20412;-67
2021/10/12 08:30:43;;;;;;;2.95;1.88;;;12.50;97.30;;;;;;4915839;29;20071;-66
2021/10/12 08:33:09;;;;;;;5.22;2.15;;;12.50;97.30;;;;;;4921188;29;20047;-67
2021/10/12 08:35:34;;;;;;;3.50;2.33;;;12.50;97.10;;;;;;4918112;29;20028;-67
2021/10/12 08:38:00;;;;;;;5.53;2.17;;;12.50;97.10;;;;;;4919434;29;20391;-67
2021/10/12 08:40:27;;;;;;;3.55;1.95;;;12.60;97.10;;;;;;4923235;29;20043;-66
2021/10/12 08:42:53;;;;;;;5.07;1.88;;;12.60;97.00;;;;;;4918173;29;20039;-66
2021/10/12 08:45:21;;;;;;;7.72;2.08;;;12.70;97.00;;;;;;4926996;29;20059;-66
2021/10/12 08:47:48;;;;;;;3.40;2.05;;;12.60;96.90;;;;;;4918305;29;20543;-66
2021/10/12 08:50:21;;;;;;;3.40;2.40;;;12.70;97.00;;;;;;4920325;29;20060;-67
2021/10/12 08:52:47;;;;;;;5.63;2.00;;;12.60;97.00;;;;;;4921659;29;20036;-67
2021/10/12 08:55:14;;;;;;;4.03;1.73;;;12.60;97.00;;;;;;4914640;29;20021;-66
2021/10/12 08:57:41;;;;;;;3.92;1.92;;;12.60;97.00;;;;;;4920583;29;20031;-66
2021/10/12 09:00:15;;;;;;;5.00;2.28;;;12.60;97.00;;;;;;4921300;29;20024;-67
2021/10/12 09:06:02;;;;;;;6.70;2.00;;;12.70;97.00;;;;;;4924216;29;20412;-66
2021/10/12 09:08:28;;;;;;;3.42;2.00;;;12.70;97.00;;;;;;4895355;29;20485;-66
2021/10/12 09:10:56;;;;;;;5.63;2.40;;;12.60;97.00;;;;;;4902354;29;20031;-66
2021/10/12 09:13:22;;;;;;;4.78;1.80;;;12.60;96.90;;;;;;4915622;29;20040;-66
2021/10/12 09:16:03;;;;;;;5.97;2.13;;;12.50;97.00;;;;;;4917588;29;20031;-71
2021/10/12 09:18:55;;;;;;;4.05;1.50;;;12.60;97.10;;;;;;4916282;29;20071;-67
2021/10/12 09:21:29;;;;;;;4.10;1.67;;;12.70;96.80;;;;;;4926394;29;20082;-66
2021/10/12 09:24:12;;;;;;;8.38;2.00;;;12.70;96.70;;;;;;4915147;29;20044;-66
2021/10/12 09:26:50;;;;;;;2.67;1.17;;;12.70;96.50;;;;;;4914239;29;20036;-66
2021/10/12 09:29:24;;;;;;;2.30;1.73;;;12.60;96.20;;;;;;4900428;29;20123;-66
2021/10/12 09:31:51;;;;;;;6.50;1.85;;;12.60;96.10;;;;;;4913542;29;20555;-66
2021/10/12 09:34:18;;;;;;;7.55;1.70;;;12.60;96.20;;;;;;4917651;29;20393;-66
2021/10/12 09:36:46;;;;;;;3.65;1.60;;;12.60;96.10;;;;;;4918078;29;20051;-66
2021/10/12 09:39:18;;;;;;;4.25;1.55;;;12.60;96.30;;;;;;4914324;29;20025;-66
2021/10/12 09:41:45;;;;;;;4.35;1.40;;;12.60;96.30;;;;;;4897200;29;20042;-65
2021/10/12 09:44:15;;;;;;;5.07;1.63;;;12.60;96.20;;;;;;4917038;29;20032;-67
2021/10/12 09:46:45;;;;;;;4.72;1.45;;;12.70;96.00;;;;;;4912131;29;20064;-66
2021/10/12 09:49:22;;;;;;;3.88;1.35;;;12.70;95.80;;;;;;4914250;29;20025;-65
2021/10/12 09:52:02;;;;;;;4.03;1.50;;;12.80;95.60;;;;;;4910990;29;20134;-66
2021/10/12 09:54:49;;;;;;;3.03;1.40;;;12.90;95.30;;;;;;4915995;29;20028;-66
2021/10/12 09:57:18;;;;;;;3.53;1.27;;;13.00;95.20;;;;;;4920624;29;20109;-67
2021/10/12 09:59:44;;;;;;;4.10;2.20;;;13.00;95.10;;;;;;4901735;29;20440;-67
2021/10/12 10:02:18;;;;;;;3.00;1.25;;;13.10;95.00;;;;;;4917176;29;20536;-67
2021/10/12 10:04:43;;;;;;;1.57;1.10;;;13.10;94.80;;;;;;4912520;29;20441;-67
2021/10/12 10:07:30;;;;;;;4.97;1.83;;;13.20;94.80;;;;;;4913529;29;20373;-67
2021/10/12 10:09:57;;;;;;;6.10;1.42;;;13.20;94.40;;;;;;4916058;29;20635;-67
2021/10/12 10:12:25;;;;;;;2.22;1.52;;;13.20;94.40;;;;;;4913235;29;20055;-67
2021/10/12 10:14:50;;;;;;;4.93;1.63;;;13.20;94.60;;;;;;4917922;29;20027;-67
2021/10/12 10:17:16;;;;;;;4.97;1.50;;;13.20;94.70;;;;;;4920144;29;20036;-67
2021/10/12 10:19:44;;;;;;;3.42;1.50;;;13.30;94.80;;;;;;4926906;29;20032;-67
2021/10/12 10:22:33;;;;;;;4.60;1.60;;;13.30;94.70;;;;;;4916245;29;20058;-67
2021/10/12 10:24:59;;;;;;;5.35;2.03;;;13.30;94.60;;;;;;4916764;29;20445;-67
2021/10/12 10:27:36;;;;;;;6.00;2.00;;;13.20;94.40;;;;;;4916975;29;20046;-67
2021/10/12 10:30:22;;;;;;;4.13;1.40;;;13.20;94.40;;;;;;4920436;29;20032;-67
2021/10/12 10:32:50;;;;;;;2.33;1.23;;;13.20;94.40;;;;;;4922850;29;20056;-69
2021/10/12 10:35:34;;;;;;;4.20;1.27;;;13.10;94.00;;;;;;4920869;29;20026;-68
2021/10/12 10:38:21;;;;;;;3.50;1.58;;;13.20;94.00;;;;;;4921491;29;20035;-69
2021/10/12 10:40:48;;;;;;;2.90;1.10;;;13.20;93.80;;;;;;4919540;29;20060;-68
2021/10/12 10:43:14;;;;;;;2.58;1.17;;;13.30;93.60;;;;;;4920061;29;20040;-69
2021/10/12 10:45:46;;;;;;;2.58;1.30;;;13.40;93.30;;;;;;4924131;29;20391;-69
2021/10/12 10:48:14;;;;;;;2.55;1.20;;;13.50;93.20;;;;;;4920542;29;20028;-69
2021/10/12 10:50:40;;;;;;;4.93;1.90;;;13.60;93.10;;;;;;4922756;29;20040;-68
2021/10/12 10:53:09;;;;;;;2.35;1.30;;;13.60;92.80;;;;;;4927316;29;20038;-69
2021/10/12 10:55:37;;;;;;;3.88;1.38;;;13.50;92.00;;;;;;4918248;29;20029;-69
2021/10/12 10:58:16;;;;;;;2.60;1.60;;;13.50;92.00;;;;;;4918059;29;20031;-69
2021/10/12 11:00:50;;;;;;;3.55;1.80;;;13.40;92.00;;;;;;4920244;29;20467;-69
2021/10/12 11:03:31;;;;;;;2.70;1.30;;;13.40;91.60;;;;;;4906986;29;20032;-69
2021/10/12 11:06:00;;;;;;;2.75;1.27;;;13.50;92.00;;;;;;4916306;29;20047;-69
2021/10/12 11:08:39;;;;;;;3.63;1.50;;;13.40;91.70;;;;;;4917445;29;20032;-69
2021/10/12 11:11:07;;;;;;;6.32;2.20;;;13.50;91.80;;;;;;4916358;29;20035;-68
2021/10/12 11:13:34;;;;;;;2.03;1.20;;;13.60;92.00;;;;;;4923686;29;20040;-67
2021/10/12 11:16:02;;;;;;;2.70;1.25;;;13.70;91.70;;;;;;4907111;29;20358;-68
2021/10/12 11:18:28;;;;;;;3.38;1.48;;;13.70;91.00;;;;;;4916038;29;20610;-67
2021/10/12 11:20:57;;;;;;;3.47;1.10;;;13.80;91.20;;;;;;4917925;29;20156;-67
2021/10/12 11:23:28;;;;;;;4.20;1.20;;;14.00;90.80;;;;;;4929232;29;20040;-69
2021/10/12 11:25:59;;;;;;;5.57;1.50;;;14.10;90.80;;;;;;4916558;29;20110;-68
2021/10/12 11:28:26;;;;;;;3.10;1.35;;;14.20;90.60;;;;;;4920054;29;20039;-68
2021/10/12 11:30:53;;;;;;;3.10;1.00;;;14.40;90.40;;;;;;4915530;29;20048;-68
2021/10/12 11:33:38;;;;;;;3.45;1.17;;;14.50;89.10;;;;;;4919436;29;20032;-69
2021/10/12 11:36:06;;;;;;;2.22;1.10;;;14.60;88.10;;;;;;4908729;29;20032;-69
2021/10/12 11:38:35;;;;;;;1.67;1.00;;;14.60;87.10;;;;;;4924200;29;20032;-69
2021/10/12 11:41:17;;;;;;;5.85;1.60;;;14.60;86.00;;;;;;4920236;29;20035;-69
2021/10/12 11:43:43;;;;;;;2.35;1.20;;;14.60;86.30;;;;;;4920693;29;20456;-69
2021/10/12 11:46:09;;;;;;;2.97;1.20;;;14.50;85.90;;;;;;4916537;29;20059;-69
2021/10/12 11:48:36;;;;;;;2.60;1.35;;;14.50;86.10;;;;;;4926988;29;20040;-69
2021/10/12 11:51:29;;;;;;;2.70;1.23;;;14.40;86.20;;;;;;4936023;29;20028;-70
2021/10/12 11:53:56;;;;;;;3.03;1.48;;;14.30;84.50;;;;;;4934409;29;20397;-70
2021/10/12 11:56:23;;;;;;;2.35;1.38;;;14.20;84.40;;;;;;4935672;29;20028;-69
2021/10/12 11:58:56;;;;;;;7.20;1.60;;;14.10;84.20;;;;;;4934034;29;20036;-70
2021/10/12 12:01:28;;;;;;;1.80;1.20;;;14.00;84.40;;;;;;4935595;29;20031;-69
2021/10/12 12:03:54;;;;;;;5.25;1.25;;;14.00;84.20;;;;;;4934304;29;20464;-69
2021/10/12 12:06:22;;;;;;;3.20;1.40;;;14.00;84.60;;;;;;4925058;29;20126;-69
2021/10/12 12:08:49;;;;;;;2.35;1.35;;;14.00;85.00;;;;;;4921066;29;20544;-69
2021/10/12 12:11:17;;;;;;;2.00;1.20;;;14.10;85.00;;;;;;4916390;29;20489;-70
2021/10/12 12:13:43;;;;;;;1.92;1.25;;;14.10;84.60;;;;;;4927268;29;20424;-70
2021/10/12 12:16:08;;;;;;;1.88;1.05;;;14.20;84.80;;;;;;4935372;29;20020;-70
2021/10/12 12:18:39;;;;;;;2.78;1.42;;;14.30;85.50;;;;;;4926319;29;20380;-70
2021/10/12 12:21:05;;;;;;;3.38;1.42;;;14.30;84.60;;;;;;4935553;29;20024;-69
2021/10/12 12:23:31;;;;;;;3.15;1.27;;;14.40;85.40;;;;;;4906911;29;20350;-70
2021/10/12 12:25:58;;;;;;;4.65;1.65;;;14.30;84.20;;;;;;4916176;29;20040;-69
2021/10/12 12:28:23;;;;;;;4.80;1.33;;;14.30;84.30;;;;;;4924150;29;20020;-69
2021/10/12 12:30:49;;;;;;;1.55;1.15;;;14.30;83.90;;;;;;4935280;29;20043;-70
2021/10/12 12:33:14;;;;;;;2.88;1.40;;;14.20;83.20;;;;;;4933368;29;20027;-70
2021/10/12 12:35:48;;;;;;;4.60;1.33;;;14.10;83.60;;;;;;4918125;29;20031;-70
2021/10/12 12:38:27;;;;;;;4.30;1.58;;;14.10;83.40;;;;;;4933581;29;20119;-70
2021/10/12 12:40:54;;;;;;;3.78;2.00;;;14.00;82.60;;;;;;4929115;29;20479;-71
2021/10/12 12:43:25;;;;;;;4.60;2.17;;;14.10;81.90;;;;;;4924206;29;20770;-70
2021/10/12 12:46:11;;;;;;;4.72;2.08;;;14.10;80.70;;;;;;4911163;29;20488;-70
2021/10/12 12:48:38;;;;;;;3.92;1.65;;;14.00;80.30;;;;;;4915810;29;20038;-71
2021/10/12 12:51:08;;;;;;;2.10;1.40;;;14.10;79.60;;;;;;4916147;29;20513;-70